createdAt,value
2019-05-26T00:01:28.827Z,66.00
2019-05-26T00:04:03.855Z,65.90
2019-05-26T00:06:36.959Z,66.00
2019-05-26T00:09:14.913Z,66.20
2019-05-26T00:11:47.690Z,65.90
2019-05-26T00:14:22.778Z,65.90
2019-05-26T00:16:58.007Z,65.70
2019-05-26T00:19:36.593Z,66.30
2019-05-26T00:22:06.869Z,66.00
2019-05-26T00:24:38.388Z,65.60
2019-05-26T00:27:12.994Z,65.30
2019-05-26T00:29:45.819Z,65.90
2019-05-26T00:32:21.248Z,65.60
2019-05-26T00:34:53.883Z,66.20
2019-05-26T00:37:25.678Z,67.00
2019-05-26T00:39:57.422Z,66.90
2019-05-26T00:42:28.440Z,66.50
2019-05-26T00:45:06.520Z,66.40
2019-05-26T00:47:38.553Z,66.20
2019-05-26T00:50:12.988Z,66.00
2019-05-26T00:53:00.253Z,65.70
2019-05-26T00:56:35.729Z,65.70
2019-05-26T00:58:09.374Z,65.70
2019-05-26T01:00:46.353Z,66.40
2019-05-26T01:03:20.358Z,65.90
2019-05-26T01:05:49.811Z,65.60
2019-05-26T01:08:26.406Z,66.00
2019-05-26T01:11:01.285Z,66.10
2019-05-26T01:13:29.664Z,65.60
2019-05-26T01:16:01.731Z,65.60
2019-05-26T01:18:34.745Z,65.40
2019-05-26T01:21:07.399Z,65.30
2019-05-26T01:23:44.206Z,65.60
2019-05-26T01:26:15.515Z,65.90
2019-05-26T01:28:48.959Z,66.00
2019-05-26T01:31:23.235Z,66.30
2019-05-26T01:33:56.130Z,66.30
2019-05-26T01:36:27.760Z,66.00
2019-05-26T01:39:01.431Z,66.00
2019-05-26T01:41:33.688Z,66.60
2019-05-26T01:44:10.890Z,66.20
2019-05-26T01:46:49.694Z,65.80
2019-05-26T01:49:27.380Z,65.90
2019-05-26T01:52:00.666Z,66.70
2019-05-26T01:54:35.083Z,66.40
2019-05-26T01:57:08.566Z,66.40
2019-05-26T01:59:44.800Z,66.40
2019-05-26T02:02:17.029Z,66.20
2019-05-26T02:04:53.308Z,66.10
2019-05-26T02:07:26.772Z,65.90
2019-05-26T02:09:59.519Z,66.30
2019-05-26T02:12:31.654Z,66.80
2019-05-26T02:15:06.842Z,67.30
2019-05-26T02:17:47.593Z,67.30
2019-05-26T02:20:24.279Z,67.00
2019-05-26T02:22:55.300Z,66.90
2019-05-26T02:25:27.188Z,66.40
2019-05-26T02:27:59.661Z,66.40
2019-05-26T02:30:29.821Z,66.70
2019-05-26T02:32:59.078Z,66.40
2019-05-26T02:35:29.352Z,66.60
2019-05-26T02:37:59.994Z,67.70
2019-05-26T02:40:30.654Z,68.00
2019-05-26T02:43:04.487Z,67.00
2019-05-26T02:45:38.410Z,66.90
2019-05-26T02:48:17.837Z,66.70
2019-05-26T02:50:56.475Z,67.50
2019-05-26T02:53:27.395Z,67.50
2019-05-26T02:55:59.008Z,67.30
2019-05-26T02:58:34.796Z,68.00
2019-05-26T03:01:04.179Z,68.90
2019-05-26T03:03:34.238Z,67.80
2019-05-26T03:06:08.799Z,68.40
2019-05-26T03:08:39.653Z,68.00
2019-05-26T03:11:10.542Z,68.90
2019-05-26T03:13:40.805Z,68.80
2019-05-26T03:16:12.186Z,69.10
2019-05-26T03:18:42.824Z,69.30
2019-05-26T03:21:14.331Z,69.10
2019-05-26T03:23:45.538Z,69.80
2019-05-26T03:26:17.659Z,69.40
2019-05-26T03:28:46.577Z,69.60
2019-05-26T03:31:17.350Z,69.10
2019-05-26T03:33:47.772Z,69.40
2019-05-26T03:36:19.297Z,69.60
2019-05-26T03:38:48.152Z,70.10
2019-05-26T03:41:17.015Z,70.50
2019-05-26T03:43:46.261Z,70.00
2019-05-26T03:46:17.333Z,69.90
2019-05-26T03:48:46.529Z,69.30
2019-05-26T03:51:15.844Z,68.90
2019-05-26T03:53:44.746Z,68.90
2019-05-26T03:56:13.687Z,68.40
2019-05-26T03:58:42.711Z,68.00
2019-05-26T04:01:13.561Z,68.80
2019-05-26T04:03:44.544Z,68.40
2019-05-26T04:06:14.293Z,68.00
2019-05-26T04:08:47.399Z,68.00
2019-05-26T04:11:22.813Z,67.80
2019-05-26T04:13:52.684Z,67.30
2019-05-26T04:16:22.360Z,67.10
2019-05-26T04:18:52.184Z,66.20
2019-05-26T04:21:24.322Z,65.60
2019-05-26T04:23:54.022Z,65.30
2019-05-26T04:26:23.091Z,64.90
2019-05-26T04:28:51.972Z,64.20
2019-05-26T04:31:22.223Z,64.20
2019-05-26T04:33:52.496Z,63.80
2019-05-26T04:36:21.384Z,62.90
2019-05-26T04:38:50.814Z,62.80
2019-05-26T04:41:19.861Z,62.40
2019-05-26T04:43:51.150Z,61.70
2019-05-26T04:46:20.870Z,62.10
2019-05-26T04:48:51.124Z,62.20
2019-05-26T04:51:20.038Z,62.30
2019-05-26T04:53:48.931Z,59.40
2019-05-26T04:56:20.117Z,56.60
2019-05-26T04:58:58.256Z,54.50
2019-05-26T05:01:31.640Z,53.90
2019-05-26T05:04:07.574Z,53.40
2019-05-26T05:06:43.923Z,53.40
2019-05-26T05:09:23.936Z,51.50
2019-05-26T05:11:53.409Z,52.00
2019-05-26T05:14:29.997Z,51.30
2019-05-26T05:17:04.323Z,50.10
2019-05-26T05:19:36.252Z,49.80
2019-05-26T05:22:10.296Z,48.60
2019-05-26T05:24:42.770Z,48.80
2019-05-26T05:27:14.339Z,48.40
2019-05-26T05:29:47.069Z,48.60
2019-05-26T05:32:19.494Z,49.10
2019-05-26T05:34:55.183Z,48.80
2019-05-26T05:37:28.930Z,49.00
2019-05-26T05:40:00.195Z,48.60
2019-05-26T05:42:33.683Z,48.70
2019-05-26T05:45:06.232Z,48.20
2019-05-26T05:47:39.780Z,48.10
2019-05-26T05:50:13.642Z,47.20
2019-05-26T05:52:45.750Z,46.20
2019-05-26T05:55:17.409Z,45.40
2019-05-26T05:57:51.250Z,44.80
2019-05-26T06:00:27.324Z,44.00
2019-05-26T06:03:07.372Z,43.10
2019-05-26T06:05:39.412Z,41.60
2019-05-26T06:08:09.519Z,40.80
2019-05-26T06:10:40.415Z,41.00
2019-05-26T06:13:16.335Z,41.50
2019-05-26T06:15:55.381Z,41.70
2019-05-26T06:18:27.527Z,42.40
2019-05-26T06:21:00.819Z,42.90
2019-05-26T06:23:42.247Z,43.70
2019-05-26T06:26:14.616Z,44.00
2019-05-26T06:28:45.071Z,44.60
2019-05-26T06:31:20.831Z,45.70
2019-05-26T06:33:53.947Z,46.90
2019-05-26T06:36:26.587Z,48.30
2019-05-26T06:39:03.118Z,49.00
2019-05-26T06:41:36.251Z,50.40
2019-05-26T06:44:07.451Z,50.80
2019-05-26T06:46:39.066Z,51.20
2019-05-26T06:49:20.708Z,50.10
2019-05-26T06:51:49.353Z,50.00
2019-05-26T06:54:21.755Z,50.20
2019-05-26T06:56:55.133Z,50.60
2019-05-26T06:59:27.102Z,51.00
2019-05-26T07:01:58.715Z,51.00
2019-05-26T07:04:39.623Z,50.70
2019-05-26T07:07:11.329Z,50.40
2019-05-26T07:09:46.780Z,50.80
2019-05-26T07:12:20.403Z,53.00
2019-05-26T07:14:57.254Z,52.40
2019-05-26T07:17:29.640Z,51.80
2019-05-26T07:20:01.182Z,51.20
2019-05-26T07:22:37.225Z,51.70
2019-05-26T07:25:15.341Z,51.60
2019-05-26T07:27:49.203Z,51.80
2019-05-26T07:30:26.511Z,52.50
2019-05-26T07:33:14.562Z,55.40
2019-05-26T07:35:45.681Z,56.10
2019-05-26T07:38:15.534Z,57.50
2019-05-26T07:40:47.686Z,57.60
2019-05-26T07:45:52.525Z,57.70
2019-05-26T07:48:30.171Z,57.70
2019-05-26T07:51:06.550Z,56.30
2019-05-26T07:53:49.164Z,52.90
2019-05-26T07:56:20.560Z,52.20
2019-05-26T07:58:52.751Z,53.40
2019-05-26T08:01:35.785Z,53.20
2019-05-26T08:04:00.970Z,50.80
2019-05-26T08:06:32.332Z,49.10
2019-05-26T08:09:02.188Z,50.40
2019-05-26T08:11:33.469Z,50.60
2019-05-26T08:14:04.043Z,50.80
2019-05-26T08:16:34.513Z,51.10
2019-05-26T08:19:06.904Z,50.70
2019-05-26T08:21:44.244Z,49.30
2019-05-26T08:24:22.185Z,50.30
2019-05-26T08:26:57.350Z,50.10
2019-05-26T08:29:30.078Z,49.60
2019-05-26T08:32:01.446Z,50.60
2019-05-26T08:34:35.282Z,49.70
2019-05-26T08:37:04.886Z,49.30
2019-05-26T08:39:39.761Z,49.30
2019-05-26T08:42:26.763Z,49.60
2019-05-26T08:44:52.507Z,50.30
2019-05-26T08:47:28.118Z,50.20
2019-05-26T08:49:58.984Z,50.70
2019-05-26T08:52:29.354Z,50.40
2019-05-26T08:54:59.425Z,50.00
2019-05-26T08:58:02.151Z,49.40
2019-05-26T09:00:05.382Z,49.30
2019-05-26T09:02:38.695Z,48.80
2019-05-26T09:05:11.406Z,49.60
2019-05-26T09:07:45.858Z,49.80
2019-05-26T09:10:22.616Z,49.40
2019-05-26T09:13:01.261Z,50.30
2019-05-26T09:15:31.884Z,49.50
2019-05-26T09:18:02.907Z,48.90
2019-05-26T09:20:35.096Z,48.40
2019-05-26T09:23:08.758Z,49.70
2019-05-26T09:25:38.172Z,50.20
2019-05-26T09:28:07.698Z,50.00
2019-05-26T09:30:36.549Z,49.20
2019-05-26T09:33:05.419Z,48.80
2019-05-26T09:35:37.250Z,49.50
2019-05-26T09:38:10.696Z,48.30
2019-05-26T09:40:46.138Z,47.50
2019-05-26T09:43:19.074Z,45.90
2019-05-26T09:45:50.480Z,46.70
2019-05-26T09:48:26.501Z,46.40
2019-05-26T09:50:57.789Z,45.90
2019-05-26T09:53:31.455Z,46.70
2019-05-26T09:56:04.430Z,45.80
2019-05-26T09:58:34.433Z,46.40
2019-05-26T10:01:04.920Z,46.40
2019-05-26T10:03:40.603Z,44.40
2019-05-26T10:06:19.336Z,44.90
2019-05-26T10:08:42.076Z,44.80
2019-05-26T10:11:12.174Z,44.20
2019-05-26T10:13:46.315Z,43.50
2019-05-26T10:16:19.145Z,43.60
2019-05-26T10:18:47.918Z,42.10
2019-05-26T10:21:27.402Z,42.60
2019-05-26T10:24:05.698Z,43.30
2019-05-26T10:26:36.683Z,43.10
2019-05-26T10:29:09.159Z,44.50
2019-05-26T10:31:39.873Z,44.60
2019-05-26T10:34:13.703Z,43.50
2019-05-26T10:36:51.285Z,42.30
2019-05-26T10:39:23.334Z,41.70
2019-05-26T10:41:56.375Z,42.00
2019-05-26T10:44:33.759Z,42.00
2019-05-26T10:47:09.130Z,41.50
2019-05-26T10:49:48.904Z,42.20
2019-05-26T10:52:27.168Z,42.00
2019-05-26T10:55:01.852Z,42.70
2019-05-26T10:57:34.423Z,42.60
2019-05-26T11:00:09.487Z,42.70
2019-05-26T11:02:39.006Z,42.20
2019-05-26T11:05:15.227Z,42.10
2019-05-26T11:07:50.863Z,42.80
2019-05-26T11:10:27.159Z,42.20
2019-05-26T11:13:09.520Z,43.80
2019-05-26T11:15:42.582Z,44.30
2019-05-26T11:18:18.544Z,44.50
2019-05-26T11:20:53.705Z,45.40
2019-05-26T11:23:22.685Z,44.90
2019-05-26T11:25:54.050Z,45.70
2019-05-26T11:28:26.580Z,46.40
2019-05-26T11:31:07.391Z,46.40
2019-05-26T11:33:40.105Z,47.20
2019-05-26T11:36:14.165Z,47.20
2019-05-26T11:38:52.355Z,47.30
2019-05-26T11:41:15.433Z,47.30
2019-05-26T11:43:45.810Z,46.90
2019-05-26T11:46:16.728Z,46.20
2019-05-26T11:48:47.318Z,46.30
2019-05-26T11:51:23.452Z,45.80
2019-05-26T11:54:08.451Z,45.30
2019-05-26T11:56:37.501Z,45.20
2019-05-26T11:59:18.490Z,44.40
2019-05-26T12:01:51.995Z,42.40
2019-05-26T12:04:23.451Z,41.90
2019-05-26T12:06:55.238Z,41.60
2019-05-26T12:09:24.408Z,42.50
2019-05-26T12:11:54.293Z,42.20
2019-05-26T12:14:34.634Z,41.90
2019-05-26T12:16:57.790Z,41.40
2019-05-26T12:19:28.548Z,40.80
2019-05-26T12:21:59.167Z,41.40
2019-05-26T12:24:31.616Z,40.10
2019-05-26T12:27:04.863Z,40.30
2019-05-26T12:29:43.763Z,40.10
2019-05-26T12:32:17.290Z,40.50
2019-05-26T12:34:54.634Z,41.20
2019-05-26T12:37:26.634Z,41.70
2019-05-26T12:40:00.327Z,43.00
2019-05-26T12:42:31.651Z,43.00
2019-05-26T12:45:06.139Z,43.20
2019-05-26T12:47:47.871Z,42.70
2019-05-26T12:50:19.792Z,43.00
2019-05-26T12:52:48.816Z,42.90
2019-05-26T12:55:20.829Z,43.00
2019-05-26T12:57:55.166Z,42.80
2019-05-26T13:00:25.002Z,42.80
2019-05-26T13:02:55.712Z,42.60
2019-05-26T13:05:25.092Z,42.30
2019-05-26T13:07:56.231Z,41.60
2019-05-26T13:10:33.466Z,41.60
2019-05-26T13:13:08.922Z,41.30
2019-05-26T13:15:40.749Z,41.10
2019-05-26T13:18:12.909Z,40.90
2019-05-26T13:20:44.961Z,40.90
2019-05-26T13:23:13.839Z,41.60
2019-05-26T13:25:45.557Z,42.20
2019-05-26T13:28:21.179Z,42.40
2019-05-26T13:30:50.424Z,42.30
2019-05-26T13:33:19.687Z,43.10
2019-05-26T13:35:51.668Z,43.20
2019-05-26T13:38:23.288Z,43.70
2019-05-26T13:40:56.117Z,42.70
2019-05-26T13:43:26.015Z,42.20
2019-05-26T13:45:59.880Z,42.00
2019-05-26T13:48:28.747Z,41.90
2019-05-26T13:51:02.610Z,42.00
2019-05-26T13:53:34.307Z,42.00
2019-05-26T13:56:06.308Z,41.90
2019-05-26T13:58:37.271Z,42.10
2019-05-26T14:01:14.230Z,43.30
2019-05-26T14:03:47.208Z,43.70
2019-05-26T14:06:17.705Z,43.50
2019-05-26T14:08:47.790Z,43.60
2019-05-26T14:11:27.592Z,43.20
2019-05-26T14:14:23.144Z,43.40
2019-05-26T14:16:58.151Z,44.40
2019-05-26T14:19:44.502Z,44.30
2019-05-26T14:22:52.773Z,44.60
2019-05-26T14:24:54.466Z,45.50
2019-05-26T14:27:46.832Z,46.20
2019-05-26T14:30:26.911Z,46.00
2019-05-26T14:32:58.728Z,47.00
2019-05-26T14:35:44.679Z,47.50
2019-05-26T14:38:42.338Z,46.10
2019-05-26T14:41:01.277Z,45.40
2019-05-26T14:43:45.143Z,46.10
2019-05-26T14:46:17.139Z,46.10
2019-05-26T14:49:00.704Z,46.20
2019-05-26T14:51:36.213Z,46.30
2019-05-26T14:54:12.442Z,46.60
2019-05-26T14:56:59.175Z,46.40
2019-05-26T14:59:30.522Z,46.00
2019-05-26T15:02:07.267Z,46.60
2019-05-26T15:04:43.197Z,46.30
2019-05-26T15:07:13.630Z,46.50
2019-05-26T15:09:47.474Z,46.80
2019-05-26T15:12:24.022Z,47.40
2019-05-26T15:14:55.918Z,48.00
2019-05-26T15:17:26.939Z,47.00
2019-05-26T15:20:01.793Z,46.30
2019-05-26T15:22:35.596Z,47.20
2019-05-26T15:25:10.305Z,47.10
2019-05-26T15:27:40.911Z,46.80
2019-05-26T15:30:13.680Z,46.80
2019-05-26T15:32:46.086Z,47.20
2019-05-26T15:35:15.129Z,48.90
2019-05-26T15:38:07.404Z,47.80
2019-05-26T15:40:22.448Z,48.20
2019-05-26T15:42:56.905Z,48.20
2019-05-26T15:45:39.083Z,48.30
2019-05-26T15:48:15.061Z,48.20
2019-05-26T15:50:44.957Z,49.10
2019-05-26T15:53:20.264Z,49.10
2019-05-26T15:55:55.286Z,49.00
2019-05-26T15:58:32.301Z,49.70
2019-05-26T16:01:12.139Z,49.80
2019-05-26T16:03:49.242Z,49.50
2019-05-26T16:06:25.410Z,49.10
2019-05-26T16:08:55.952Z,49.40
2019-05-26T16:11:29.306Z,49.60
2019-05-26T16:14:00.469Z,49.70
2019-05-26T16:16:40.814Z,49.40
2019-05-26T16:19:14.688Z,49.80
2019-05-26T16:24:50.479Z,50.00
2019-05-26T16:27:27.036Z,49.40
2019-05-26T16:30:03.833Z,48.80
2019-05-26T16:32:36.333Z,48.60
2019-05-26T16:35:17.376Z,48.70
2019-05-26T16:37:53.150Z,48.50
2019-05-26T16:40:23.561Z,48.80
2019-05-26T16:43:05.613Z,48.70
2019-05-26T16:45:38.154Z,48.70
2019-05-26T16:48:25.072Z,48.80
2019-05-26T16:50:56.247Z,48.60
2019-05-26T16:53:37.997Z,48.50
2019-05-26T16:56:06.356Z,48.70
2019-05-26T16:58:44.108Z,48.90
2019-05-26T17:01:15.922Z,49.60
2019-05-26T17:03:54.429Z,49.10
2019-05-26T17:06:27.750Z,49.40
2019-05-26T17:09:06.600Z,50.00
2019-05-26T17:11:46.492Z,50.20
2019-05-26T17:14:25.385Z,49.30
2019-05-26T17:17:14.312Z,49.80
2019-05-26T17:19:43.974Z,49.90
2019-05-26T17:22:21.499Z,50.70
2019-05-26T17:24:59.936Z,49.50
2019-05-26T17:27:38.673Z,49.50
2019-05-26T17:30:21.811Z,50.10
2019-05-26T17:32:53.399Z,49.60
2019-05-26T17:35:37.894Z,49.00
2019-05-26T17:38:22.980Z,48.80
2019-05-26T17:41:04.515Z,49.90
2019-05-26T17:43:40.127Z,51.10
2019-05-26T17:46:23.724Z,50.80
2019-05-26T17:49:24.124Z,50.30
2019-05-26T17:52:20.983Z,49.80
2019-05-26T17:54:54.452Z,49.40
2019-05-26T18:00:26.265Z,48.50
2019-05-26T18:03:01.543Z,48.30
2019-05-26T18:05:28.585Z,48.30
2019-05-26T18:08:00.781Z,48.40
2019-05-26T18:10:38.027Z,48.40
2019-05-26T18:13:07.239Z,48.20
2019-05-26T18:15:43.324Z,46.90
2019-05-26T18:18:20.946Z,47.60
2019-05-26T18:20:58.889Z,48.40
2019-05-26T18:23:28.812Z,48.70
2019-05-26T18:26:09.490Z,47.70
2019-05-26T18:28:53.888Z,48.90
2019-05-26T18:31:36.732Z,49.20
2019-05-26T18:34:08.962Z,49.40
2019-05-26T18:36:40.842Z,49.60
2019-05-26T18:39:15.419Z,49.80
2019-05-26T18:41:53.609Z,50.20
2019-05-26T18:44:23.706Z,50.10
2019-05-26T18:47:00.620Z,50.20
2019-05-26T18:49:33.423Z,50.30
2019-05-26T18:52:11.832Z,50.40
2019-05-26T18:54:46.154Z,50.60
2019-05-26T18:57:24.463Z,50.70
2019-05-26T18:59:54.096Z,50.80
2019-05-26T19:02:35.219Z,50.80
2019-05-26T19:05:12.954Z,51.00
2019-05-26T19:08:02.961Z,51.40
2019-05-26T19:10:36.173Z,51.50
2019-05-26T19:13:11.879Z,51.60
2019-05-26T19:15:46.503Z,51.80
2019-05-26T19:18:21.656Z,52.10
2019-05-26T19:20:55.536Z,52.20
2019-05-26T19:23:31.747Z,52.40
2019-05-26T19:26:10.620Z,52.60
2019-05-26T19:28:41.552Z,52.80
2019-05-26T19:31:18.046Z,53.20
2019-05-26T19:33:58.059Z,53.20
2019-05-26T19:36:32.763Z,54.00
2019-05-26T19:39:11.122Z,53.30
2019-05-26T19:41:47.815Z,54.20
2019-05-26T19:44:23.395Z,53.70
2019-05-26T19:49:49.721Z,54.20
2019-05-26T19:52:20.139Z,54.40
2019-05-26T19:54:56.309Z,54.30
2019-05-26T19:57:26.336Z,54.40
2019-05-26T20:02:55.426Z,54.70
2019-05-26T20:05:36.928Z,54.60
2019-05-26T20:08:19.459Z,54.80
2019-05-26T20:10:58.946Z,54.90
2019-05-26T20:13:36.010Z,55.00
2019-05-26T20:16:30.858Z,55.00
2019-05-26T20:19:03.609Z,55.20
2019-05-26T20:21:39.140Z,55.30
2019-05-26T20:24:21.748Z,55.30
2019-05-26T20:27:01.877Z,55.40
2019-05-26T20:32:31.834Z,55.80
2019-05-26T20:35:14.421Z,56.20
2019-05-26T20:37:50.383Z,56.00
2019-05-26T20:40:27.973Z,56.20
2019-05-26T20:43:02.010Z,56.80
2019-05-26T20:45:40.335Z,57.30
2019-05-26T20:48:27.832Z,56.30
2019-05-26T20:51:02.489Z,57.30
2019-05-26T20:53:44.518Z,57.60
2019-05-26T20:56:39.253Z,56.70
2019-05-26T20:59:00.217Z,57.40
2019-05-26T21:01:37.652Z,57.50
2019-05-26T21:04:22.220Z,57.30
2019-05-26T21:06:53.252Z,57.50
2019-05-26T21:09:29.332Z,57.60
2019-05-26T21:12:05.305Z,57.50
2019-05-26T21:14:39.930Z,57.50
2019-05-26T21:17:13.573Z,58.80
2019-05-26T21:19:56.751Z,58.20
2019-05-26T21:22:30.823Z,58.00
2019-05-26T21:25:10.390Z,58.00
2019-05-26T21:27:41.121Z,58.60
2019-05-26T21:30:13.302Z,58.80
2019-05-26T21:32:47.595Z,59.60
2019-05-26T21:35:19.744Z,59.20
2019-05-26T21:37:55.070Z,58.80
2019-05-26T21:40:33.034Z,59.20
2019-05-26T21:43:06.946Z,59.20
2019-05-26T21:45:39.728Z,58.80
2019-05-26T21:48:14.316Z,58.00
2019-05-26T21:50:54.071Z,58.90
2019-05-26T21:53:31.815Z,58.60
2019-05-26T21:56:07.710Z,59.00
2019-05-26T21:58:53.789Z,58.10
2019-05-26T22:01:16.227Z,58.70
2019-05-26T22:03:57.393Z,58.20
2019-05-26T22:06:28.523Z,59.00
2019-05-26T22:09:08.024Z,58.40
2019-05-26T22:11:45.207Z,59.20
2019-05-26T22:14:19.656Z,58.80
2019-05-26T22:16:56.888Z,58.60
2019-05-26T22:19:31.011Z,58.70
2019-05-26T22:22:03.808Z,58.50
2019-05-26T22:24:37.816Z,59.00
2019-05-26T22:27:10.255Z,58.60
2019-05-26T22:29:42.405Z,58.40
2019-05-26T22:32:17.220Z,58.30
2019-05-26T22:34:48.723Z,58.20
2019-05-26T22:37:21.696Z,58.70
2019-05-26T22:39:59.600Z,58.80
2019-05-26T22:42:32.278Z,58.90
2019-05-26T22:45:19.030Z,59.50
2019-05-26T22:47:58.353Z,60.00
2019-05-26T22:50:29.499Z,60.80
2019-05-26T22:53:08.111Z,62.00
2019-05-26T22:55:47.755Z,61.90
2019-05-26T22:58:35.649Z,61.10
2019-05-26T23:01:11.279Z,60.80
2019-05-26T23:03:49.914Z,60.50
2019-05-26T23:06:29.893Z,60.20
2019-05-26T23:09:04.413Z,60.30
2019-05-26T23:11:40.124Z,60.00
2019-05-26T23:14:19.813Z,61.20
2019-05-26T23:16:57.271Z,62.70
2019-05-26T23:19:27.643Z,63.90
2019-05-26T23:22:03.607Z,63.50
2019-05-26T23:24:39.127Z,62.90
2019-05-26T23:27:25.125Z,62.60
2019-05-26T23:29:58.496Z,62.80
2019-05-26T23:32:40.689Z,63.00
2019-05-26T23:35:21.866Z,63.10
2019-05-26T23:38:01.117Z,63.00
2019-05-26T23:40:42.853Z,62.90
2019-05-26T23:43:24.768Z,62.90
2019-05-26T23:46:01.590Z,63.10
2019-05-26T23:48:43.204Z,63.10
2019-05-26T23:51:17.822Z,63.50
2019-05-26T23:53:53.148Z,64.10
2019-05-26T23:56:32.030Z,63.70
2019-05-26T23:59:06.272Z,63.50
